Time;durP1;ratioP1;P1;durP2;ratioP2;P2;SDS_P1;SDS_P2;PMS_P1;PMS_P2;Temp;Humidity;BMP_temperature;BMP_pressure;BME280_temperature;BME280_humidity;BME280_pressure;Samples;Min_cycle;Max_cycle;Signal;HPM_P1;HPM_P2
2023/06/28 00:00:22;;;;;;;6.15;1.60;;;;;;;15.87;60.71;99761.53;5129007;27;20288;-62
2023/06/28 00:02:50;;;;;;;2.35;1.38;;;;;;;15.90;61.04;99776.16;5131036;27;20264;-61
2023/06/28 00:05:18;;;;;;;1.35;1.10;;;;;;;15.87;60.51;99761.53;5131645;27;20645;-61
2023/06/28 00:07:46;;;;;;;2.92;1.52;;;;;;;15.88;60.77;99775.38;5131599;27;20223;-61
2023/06/28 00:10:14;;;;;;;1.58;1.35;;;;;;;15.85;60.76;99768.53;5129822;27;20210;-61
2023/06/28 00:12:42;;;;;;;2.40;1.27;;;;;;;15.81;60.62;99771.31;5129384;27;20199;-61
2023/06/28 00:15:12;;;;;;;2.30;1.17;;;;;;;15.77;61.01;99774.94;5130244;27;20576;-61
2023/06/28 00:17:40;;;;;;;4.43;1.70;;;;;;;15.76;61.37;99776.69;5130568;27;20624;-60
2023/06/28 00:20:10;;;;;;;2.20;1.27;;;;;;;15.78;61.14;99774.84;5131347;27;20665;-60
2023/06/28 00:22:39;;;;;;;2.38;1.52;;;;;;;15.65;61.41;99774.47;5134452;27;20206;-60
2023/06/28 00:25:09;;;;;;;2.60;1.42;;;;;;;15.55;61.86;99785.22;5136653;27;20226;-62
2023/06/28 00:27:37;;;;;;;2.88;1.40;;;;;;;15.45;62.01;99780.34;5128909;27;20211;-62
2023/06/28 00:30:06;;;;;;;3.65;1.50;;;;;;;15.30;62.17;99778.28;5131484;27;20206;-61
2023/06/28 00:32:35;;;;;;;1.25;1.05;;;;;;;15.17;63.10;99782.22;5131406;28;20719;-63
2023/06/28 00:35:03;;;;;;;1.65;1.38;;;;;;;15.12;63.19;99784.13;5131797;27;20288;-62
2023/06/28 00:37:32;;;;;;;3.15;1.33;;;;;;;15.13;63.28;99783.22;5136132;27;20199;-61
2023/06/28 00:40:00;;;;;;;2.63;1.25;;;;;;;15.16;62.94;99775.34;5136228;27;20203;-61
2023/06/28 00:42:28;;;;;;;3.65;1.40;;;;;;;15.18;62.89;99791.72;5133445;27;20209;-61
2023/06/28 00:44:56;;;;;;;2.65;1.25;;;;;;;15.13;63.07;99783.22;5133516;27;20203;-61
2023/06/28 00:47:25;;;;;;;1.92;1.33;;;;;;;15.12;63.38;99781.53;5134118;27;20211;-61
2023/06/28 00:49:55;;;;;;;2.77;1.37;;;;;;;15.14;62.93;99779.75;5133514;27;20207;-62
2023/06/28 00:52:23;;;;;;;2.67;1.35;;;;;;;15.15;63.14;99792.66;5135686;27;20207;-61
2023/06/28 00:54:52;;;;;;;3.80;1.63;;;;;;;15.17;63.17;99783.09;5132798;27;20218;-60
2023/06/28 00:57:20;;;;;;;4.05;1.33;;;;;;;15.19;63.00;99783.84;5131034;27;20674;-62
2023/06/28 00:59:50;;;;;;;1.83;1.15;;;;;;;15.18;62.93;99773.53;5143679;27;20205;-62
2023/06/28 01:02:19;;;;;;;1.58;1.30;;;;;;;15.19;62.54;99778.66;5133243;27;20201;-61
2023/06/28 01:04:47;;;;;;;4.00;1.40;;;;;;;15.15;62.68;99790.06;5131816;27;20255;-61
2023/06/28 01:07:17;;;;;;;3.40;1.70;;;;;;;15.12;63.25;99781.53;5136297;27;20211;-61
2023/06/28 01:09:45;;;;;;;4.13;1.48;;;;;;;15.07;63.12;99786.88;5135180;27;20227;-61
2023/06/28 01:12:14;;;;;;;3.30;1.60;;;;;;;15.00;63.72;99777.63;5133233;27;20612;-62
2023/06/28 01:14:42;;;;;;;1.73;1.58;;;;;;;14.88;64.31;99784.06;5136534;27;20199;-62
2023/06/28 01:17:11;;;;;;;5.15;1.80;;;;;;;14.83;64.38;99775.56;5133553;27;20195;-61
2023/06/28 01:19:39;;;;;;;1.95;1.40;;;;;;;14.83;64.56;99780.75;5132771;27;20263;-61
2023/06/28 01:22:12;;;;;;;3.13;1.70;;;;;;;14.81;64.95;99782.56;5135074;27;20255;-61
2023/06/28 01:24:42;;;;;;;3.50;1.77;;;;;;;14.83;64.79;99774.72;5145135;27;20666;-62
2023/06/28 01:27:13;;;;;;;4.10;1.57;;;;;;;14.82;65.40;99776.47;5134360;27;20207;-61
2023/06/28 01:29:42;;;;;;;2.00;1.70;;;;;;;14.80;65.31;99770.50;5138491;27;20601;-62
2023/06/28 01:32:10;;;;;;;5.32;1.80;;;;;;;14.75;65.08;99769.81;5133986;27;20319;-62
2023/06/28 01:34:38;;;;;;;4.80;2.23;;;;;;;14.72;65.77;99775.94;5145106;27;20233;-63
2023/06/28 01:37:06;;;;;;;2.30;1.90;;;;;;;14.72;65.73;99772.50;5131796;27;20205;-62
2023/06/28 01:39:34;;;;;;;3.10;1.83;;;;;;;14.69;65.97;99767.41;5134118;27;20290;-62
2023/06/28 01:42:05;;;;;;;3.33;1.77;;;;;;;14.68;66.27;99770.91;5134186;27;20226;-62
2023/06/28 01:44:33;;;;;;;2.17;1.97;;;;;;;14.66;66.43;99762.34;5134971;27;20223;-62
2023/06/28 01:47:01;;;;;;;5.00;2.00;;;;;;;14.64;66.03;99759.78;5133747;27;20214;-64
2023/06/28 01:49:30;;;;;;;3.05;2.03;;;;;;;14.59;66.34;99772.06;5134767;27;20246;-63
2023/06/28 01:51:58;;;;;;;2.10;1.80;;;;;;;14.59;66.75;99771.22;5134371;27;20717;-62
2023/06/28 01:54:28;;;;;;;3.17;1.80;;;;;;;14.56;67.13;99774.75;5127584;27;20204;-62
2023/06/28 01:56:56;;;;;;;1.93;1.77;;;;;;;14.55;67.13;99767.88;5131435;27;20193;-63
2023/06/28 01:59:25;;;;;;;3.63;1.75;;;;;;;14.46;67.07;99776.75;5132866;27;20199;-62
2023/06/28 02:01:53;;;;;;;4.90;2.07;;;;;;;14.39;67.40;99767.47;5132594;27;20252;-62
2023/06/28 02:04:21;;;;;;;3.23;2.10;;;;;;;14.35;67.51;99773.63;5137798;27;20207;-61
2023/06/28 02:06:49;;;;;;;2.80;2.00;;;;;;;14.28;67.85;99782.50;5135122;27;20197;-62
2023/06/28 02:09:17;;;;;;;3.93;2.07;;;;;;;14.25;68.44;99772.25;5133611;27;20215;-63
2023/06/28 02:11:48;;;;;;;4.90;2.20;;;;;;;14.24;67.85;99766.19;5130363;27;20714;-62
2023/06/28 02:14:16;;;;;;;2.93;1.83;;;;;;;14.27;67.75;99771.28;5132882;27;20323;-61
2023/06/28 02:16:45;;;;;;;9.10;2.00;;;;;;;14.30;68.34;99772.94;5133478;27;20234;-62
2023/06/28 02:19:15;;;;;;;4.43;1.90;;;;;;;14.33;68.04;99775.44;5133041;27;20730;-62
2023/06/28 02:21:43;;;;;;;4.97;1.93;;;;;;;14.32;67.93;99770.28;5134931;27;20199;-62
2023/06/28 02:24:11;;;;;;;7.37;1.70;;;;;;;14.29;67.99;99768.66;5134205;27;20203;-61
2023/06/28 02:26:39;;;;;;;2.43;1.80;;;;;;;14.25;67.96;99774.84;5144280;27;20211;-62
2023/06/28 02:29:07;;;;;;;2.03;1.67;;;;;;;14.25;67.77;99767.06;5131339;27;20227;-61
2023/06/28 02:31:35;;;;;;;2.07;1.87;;;;;;;14.24;67.97;99766.19;5131679;27;20570;-63
2023/06/28 02:34:05;;;;;;;2.97;1.98;;;;;;;14.25;67.76;99765.31;5133108;27;20645;-62
2023/06/28 02:36:33;;;;;;;1.83;1.70;;;;;;;14.19;68.42;99762.06;5133861;27;20532;-62
2023/06/28 02:39:01;;;;;;;4.83;1.77;;;;;;;14.19;68.25;99770.69;5133801;27;20203;-62
2023/06/28 02:41:29;;;;;;;4.72;1.77;;;;;;;14.20;68.31;99766.34;5133057;27;20211;-62
2023/06/28 02:43:57;;;;;;;2.57;1.90;;;;;;;14.22;68.12;99760.22;5131088;27;20302;-61
2023/06/28 02:46:25;;;;;;;1.93;1.80;;;;;;;14.30;68.26;99753.97;5130404;27;20247;-63
2023/06/28 02:48:53;;;;;;;3.87;1.83;;;;;;;14.34;68.09;99763.34;5132661;27;20750;-63
2023/06/28 02:51:22;;;;;;;5.93;1.90;;;;;;;14.34;67.81;99771.94;5132951;27;20210;-62
2023/06/28 02:53:50;;;;;;;3.00;1.97;;;;;;;14.31;68.07;99772.03;5130203;27;20245;-62
2023/06/28 02:56:18;;;;;;;4.13;1.90;;;;;;;14.26;68.15;99769.59;5131854;27;20203;-62
2023/06/28 02:58:46;;;;;;;3.20;2.27;;;;;;;14.21;68.00;99768.03;5131250;27;20203;-62
2023/06/28 03:01:14;;;;;;;3.53;2.07;;;;;;;14.19;68.54;99772.44;5132026;27;20223;-62
2023/06/28 03:03:43;;;;;;;3.00;1.73;;;;;;;14.17;68.87;99780.22;5131620;27;20203;-62
2023/06/28 03:06:11;;;;;;;2.53;1.70;;;;;;;14.14;68.65;99774.28;5130615;27;20310;-62
2023/06/28 03:08:41;;;;;;;5.30;1.90;;;;;;;14.13;69.10;99782.97;5131766;27;20244;-62
2023/06/28 03:11:10;;;;;;;5.17;1.97;;;;;;;14.12;68.76;99776.09;5130271;27;20800;-62
2023/06/28 03:13:37;;;;;;;2.90;1.93;;;;;;;14.07;69.33;99768.47;5132137;27;20207;-62
2023/06/28 03:16:06;;;;;;;2.03;1.83;;;;;;;14.09;69.47;99760.66;5131480;27;20207;-62
2023/06/28 03:18:34;;;;;;;3.00;2.10;;;;;;;14.11;68.92;99764.06;5134077;27;20203;-62
2023/06/28 03:21:02;;;;;;;4.40;2.20;;;;;;;14.12;69.31;99763.16;5132201;27;20658;-62
2023/06/28 03:23:31;;;;;;;4.10;2.03;;;;;;;14.14;69.49;99763.94;5132427;27;20706;-63
2023/06/28 03:26:01;;;;;;;3.20;1.80;;;;;;;14.17;68.84;99758.66;5131644;27;20234;-62
2023/06/28 03:28:29;;;;;;;2.60;1.83;;;;;;;14.21;69.14;99758.53;5128868;27;20280;-63
2023/06/28 03:30:57;;;;;;;3.90;2.07;;;;;;;14.24;69.21;99763.59;5127892;27;20244;-62
2023/06/28 03:33:25;;;;;;;2.73;1.93;;;;;;;14.26;68.80;99758.38;5129274;27;20230;-61
2023/06/28 03:35:53;;;;;;;3.77;2.30;;;;;;;14.24;68.65;99754.97;5135477;27;20239;-64
2023/06/28 03:38:21;;;;;;;3.10;2.00;;;;;;;14.23;68.90;99761.91;5130181;27;20230;-61
2023/06/28 03:40:48;;;;;;;4.33;2.10;;;;;;;14.23;69.13;99758.47;5130687;27;20567;-66
2023/06/28 03:43:18;;;;;;;3.87;2.23;;;;;;;14.16;69.10;99759.56;5130456;27;20213;-66
2023/06/28 03:45:46;;;;;;;6.00;2.10;;;;;;;14.17;69.23;99758.66;5129708;27;20282;-62
2023/06/28 03:48:14;;;;;;;4.83;2.23;;;;;;;14.20;69.51;99756.81;5130667;27;20199;-62
2023/06/28 03:50:42;;;;;;;4.57;2.33;;;;;;;14.23;68.99;99759.31;5132213;27;20203;-62
2023/06/28 03:53:10;;;;;;;3.77;2.10;;;;;;;14.28;68.67;99766.94;5129264;27;20200;-62
2023/06/28 03:55:38;;;;;;;4.97;2.50;;;;;;;14.22;69.49;99765.41;5130594;27;20224;-62
2023/06/28 03:58:06;;;;;;;2.40;2.13;;;;;;;14.23;69.85;99764.50;5135206;27;20213;-62
2023/06/28 04:00:36;;;;;;;7.17;2.10;;;;;;;14.33;69.37;99765.09;5131526;27;20222;-62
2023/06/28 04:03:05;;;;;;;3.93;2.13;;;;;;;14.42;69.05;99764.78;5122243;27;20203;-62
2023/06/28 04:05:33;;;;;;;2.33;2.10;;;;;;;14.49;68.84;99761.13;5124856;27;20203;-62
2023/06/28 04:08:02;;;;;;;3.87;2.10;;;;;;;14.57;68.57;99768.66;5131081;27;20211;-63
2023/06/28 04:10:30;;;;;;;4.07;2.50;;;;;;;14.61;68.36;99764.22;5132916;27;20223;-63
2023/06/28 04:12:58;;;;;;;2.53;2.20;;;;;;;14.70;68.01;99774.31;5128047;27;20191;-62
2023/06/28 04:15:26;;;;;;;2.33;2.10;;;;;;;14.76;67.73;99771.50;5131158;27;20282;-62
2023/06/28 04:17:55;;;;;;;2.60;1.80;;;;;;;14.81;67.55;99759.22;5131423;27;20199;-63
2023/06/28 04:20:23;;;;;;;2.88;2.20;;;;;;;14.92;67.58;99772.69;5125556;27;20205;-62
2023/06/28 04:22:51;;;;;;;3.72;1.90;;;;;;;15.04;67.48;99768.81;5135250;27;20210;-63
2023/06/28 04:25:19;;;;;;;2.95;2.20;;;;;;;15.16;67.05;99760.59;5140604;27;20282;-63
2023/06/28 04:27:47;;;;;;;4.03;2.17;;;;;;;15.21;66.42;99761.31;5130454;27;20206;-63
2023/06/28 04:30:15;;;;;;;2.30;2.10;;;;;;;15.27;66.63;99767.16;5130447;27;20219;-63
2023/06/28 04:32:44;;;;;;;2.78;2.50;;;;;;;15.34;66.06;99773.84;5130651;27;20642;-63
2023/06/28 04:35:15;;;;;;;4.22;2.20;;;;;;;15.43;65.98;99771.78;5128771;27;20576;-62
2023/06/28 04:37:43;;;;;;;2.42;2.08;;;;;;;15.49;65.33;99772.44;5135968;27;20729;-63
2023/06/28 04:40:13;;;;;;;2.92;2.20;;;;;;;15.62;64.95;99776.31;5131183;27;20195;-63
2023/06/28 04:42:41;;;;;;;2.20;1.98;;;;;;;15.76;64.92;99786.19;5131009;27;20203;-63
2023/06/28 04:45:11;;;;;;;3.67;2.28;;;;;;;15.81;64.53;99779.94;5131413;27;20554;-62
2023/06/28 04:47:39;;;;;;;2.83;2.33;;;;;;;15.92;64.52;99780.38;5124781;27;20202;-62
2023/06/28 04:50:08;;;;;;;4.00;2.20;;;;;;;16.04;63.95;99776.47;5131905;27;20625;-62
2023/06/28 04:52:38;;;;;;;4.40;2.10;;;;;;;16.09;63.52;99778.88;5131589;27;20551;-62
2023/06/28 04:55:07;;;;;;;4.63;2.65;;;;;;;16.14;62.69;99784.78;5122060;27;20545;-63
2023/06/28 04:57:34;;;;;;;3.78;2.30;;;;;;;16.17;62.86;99782.91;5123048;27;20204;-63
2023/06/28 05:00:03;;;;;;;2.33;2.10;;;;;;;16.22;63.00;99782.72;5127590;27;20233;-62
2023/06/28 05:02:31;;;;;;;2.42;1.92;;;;;;;16.32;62.94;99778.84;5130646;27;20199;-61
2023/06/28 05:05:00;;;;;;;3.85;2.17;;;;;;;16.51;62.79;99778.13;5129819;27;20199;-60
2023/06/28 05:07:28;;;;;;;5.60;2.30;;;;;;;16.67;61.38;99784.38;5130094;27;20641;-62
2023/06/28 05:09:57;;;;;;;5.93;2.10;;;;;;;16.71;61.48;99772.09;5128646;27;20204;-61
2023/06/28 05:12:25;;;;;;;3.42;2.20;;;;;;;16.83;60.90;99767.28;5130717;27;20207;-63
2023/06/28 05:14:53;;;;;;;4.78;2.10;;;;;;;16.94;60.79;99773.78;5133176;27;20712;-61
2023/06/28 05:17:21;;;;;;;3.50;1.58;;;;;;;17.16;60.52;99771.97;5125030;27;20260;-61
2023/06/28 05:19:49;;;;;;;3.28;2.10;;;;;;;17.60;59.82;99769.19;5130586;27;20279;-60
2023/06/28 05:22:21;;;;;;;1.83;1.60;;;;;;;18.00;57.44;99769.97;5124753;27;20207;-61
2023/06/28 05:24:49;;;;;;;2.47;1.85;;;;;;;17.98;56.92;99770.06;5134813;27;20550;-61
2023/06/28 05:27:19;;;;;;;3.75;2.08;;;;;;;17.93;57.34;99753.78;5134998;27;20203;-63
2023/06/28 05:29:47;;;;;;;2.67;2.13;;;;;;;18.99;56.73;99756.47;5119885;27;20260;-61
2023/06/28 05:32:15;;;;;;;4.78;1.95;;;;;;;20.04;51.79;99755.31;5131221;27;20620;-61
2023/06/28 05:34:43;;;;;;;3.60;1.70;;;;;;;21.33;50.02;99761.84;5133042;27;20315;-62
2023/06/28 05:37:11;;;;;;;5.68;1.73;;;;;;;22.81;45.27;99750.72;5134620;27;20666;-61
2023/06/28 05:39:39;;;;;;;3.10;1.60;;;;;;;23.89;41.67;99744.16;5132695;27;20227;-63
2023/06/28 05:42:07;;;;;;;3.97;1.73;;;;;;;24.82;39.66;99739.97;5126060;27;20207;-62
2023/06/28 05:44:36;;;;;;;2.40;1.55;;;;;;;25.76;37.25;99737.03;5135190;27;22857;-63
2023/06/28 05:47:05;;;;;;;4.35;1.77;;;;;;;26.83;35.95;99727.44;5133524;27;20203;-62
2023/06/28 05:49:37;;;;;;;3.00;1.27;;;;;;;28.01;33.04;99727.84;5132336;27;20581;-63
2023/06/28 05:52:06;;;;;;;2.03;1.38;;;;;;;28.37;31.96;99733.44;5129956;27;20243;-63
2023/06/28 05:54:34;;;;;;;4.38;1.55;;;;;;;28.73;31.92;99729.28;5125932;27;20203;-61
2023/06/28 05:57:03;;;;;;;2.38;1.25;;;;;;;29.48;30.38;99730.19;5125171;27;20661;-61
2023/06/28 05:59:31;;;;;;;2.03;1.50;;;;;;;30.16;28.79;99727.16;5123139;27;20199;-63
2023/06/28 06:02:00;;;;;;;1.75;1.48;;;;;;;30.89;27.68;99720.81;5129359;27;20628;-63
2023/06/28 06:04:29;;;;;;;2.65;1.42;;;;;;;31.81;26.72;99716.59;5131294;27;20823;-62
2023/06/28 06:06:57;;;;;;;1.98;1.20;;;;;;;32.67;25.94;99722.41;5129794;27;20240;-63
2023/06/28 06:09:26;;;;;;;3.50;1.60;;;;;;;33.15;24.15;99722.53;5130230;27;20608;-64
2023/06/28 06:11:54;;;;;;;2.63;1.33;;;;;;;33.65;23.85;99724.00;5130038;27;20220;-63
2023/06/28 06:14:22;;;;;;;1.90;1.45;;;;;;;33.43;23.17;99725.59;5133521;27;20195;-62
2023/06/28 06:16:49;;;;;;;3.15;1.40;;;;;;;33.02;24.34;99716.88;5133264;27;20239;-63
2023/06/28 06:19:19;;;;;;;2.95;1.10;;;;;;;33.35;23.02;99717.59;5133330;27;20295;-62
2023/06/28 06:21:47;;;;;;;4.63;1.65;;;;;;;33.15;23.43;99719.84;5136775;27;20534;-63
2023/06/28 06:24:15;;;;;;;1.27;1.17;;;;;;;33.14;23.59;99719.03;5133910;27;21225;-63
2023/06/28 06:26:43;;;;;;;1.70;1.33;;;;;;;33.80;23.19;99726.78;5133373;27;20203;-64
2023/06/28 06:29:11;;;;;;;1.40;1.20;;;;;;;33.73;22.93;99720.47;5131229;27;20196;-64
2023/06/28 06:31:39;;;;;;;3.83;1.23;;;;;;;33.00;22.60;99718.91;5130168;27;20227;-64
2023/06/28 06:34:07;;;;;;;4.05;1.58;;;;;;;31.87;24.77;99724.00;5131898;27;20326;-63
2023/06/28 06:36:37;;;;;;;3.38;1.15;;;;;;;30.05;27.14;99716.75;5133916;27;20207;-63
2023/06/28 06:39:05;;;;;;;1.40;1.30;;;;;;;28.05;30.45;99723.09;5133335;27;20563;-63
2023/06/28 06:41:33;;;;;;;1.83;1.30;;;;;;;26.93;32.60;99736.28;5131589;27;20210;-63
2023/06/28 06:44:01;;;;;;;3.40;1.40;;;;;;;26.44;34.73;99721.88;5132097;27;20570;-63
2023/06/28 06:46:29;;;;;;;1.85;1.10;;;;;;;27.68;33.38;99711.28;5127278;27;20538;-64
2023/06/28 06:48:57;;;;;;;1.75;1.20;;;;;;;29.56;28.46;99710.84;5129510;27;20264;-65
2023/06/28 06:51:25;;;;;;;3.00;1.00;;;;;;;30.64;28.06;99720.63;5136927;27;20208;-63
2023/06/28 06:53:54;;;;;;;2.45;1.30;;;;;;;31.85;25.99;99701.94;5131529;27;20191;-63
2023/06/28 06:56:23;;;;;;;2.78;1.70;;;;;;;32.98;24.62;99700.38;5136261;27;20774;-63
2023/06/28 06:58:51;;;;;;;2.60;1.50;;;;;;;34.33;22.50;99706.41;5130725;27;20242;-65
2023/06/28 07:01:19;;;;;;;2.90;1.17;;;;;;;34.26;21.86;99710.81;5126583;27;20195;-65
2023/06/28 07:03:47;;;;;;;2.78;1.48;;;;;;;34.21;23.07;99692.63;5130546;27;20227;-66
2023/06/28 07:06:15;;;;;;;3.35;1.60;;;;;;;34.24;21.63;99710.13;5124990;27;20747;-65
2023/06/28 07:08:46;;;;;;;2.35;1.45;;;;;;;34.48;22.43;99715.31;5119730;27;20199;-65
2023/06/28 07:11:15;;;;;;;3.03;1.25;;;;;;;35.11;21.04;99701.69;5128072;27;20238;-61
2023/06/28 07:13:43;;;;;;;2.78;1.33;;;;;;;34.99;21.47;99710.16;5125795;27;20684;-59
2023/06/28 07:16:11;;;;;;;4.43;1.13;;;;;;;34.40;21.64;99714.56;5125499;27;20199;-58
2023/06/28 07:18:40;;;;;;;2.22;1.17;;;;;;;33.73;22.38;99717.78;5121833;27;20210;-58
2023/06/28 07:21:08;;;;;;;3.70;1.10;;;;;;;33.63;22.36;99721.53;5120978;27;20200;-59
2023/06/28 07:23:36;;;;;;;3.72;1.50;;;;;;;33.67;22.67;99720.16;5119274;27;20209;-60
2023/06/28 07:26:04;;;;;;;2.08;1.42;;;;;;;33.15;22.85;99718.00;5117484;27;20207;-64
2023/06/28 07:28:33;;;;;;;5.25;1.52;;;;;;;32.68;24.54;99715.25;5122833;27;20203;-66
2023/06/28 07:31:02;;;;;;;2.80;1.45;;;;;;;33.88;23.41;99719.56;5120634;27;20268;-66
2023/06/28 07:33:30;;;;;;;3.13;1.30;;;;;;;34.84;21.76;99714.69;5122034;27;20252;-61
2023/06/28 07:35:58;;;;;;;1.75;1.02;;;;;;;35.44;21.05;99697.59;5120809;27;20243;-63
2023/06/28 07:38:26;;;;;;;4.45;1.40;;;;;;;35.50;20.92;99710.28;5122586;27;20214;-65
2023/06/28 07:40:54;;;;;;;1.85;1.02;;;;;;;35.28;20.54;99711.22;5124726;27;20200;-64
2023/06/28 07:43:22;;;;;;;2.33;1.30;;;;;;;34.93;21.22;99702.03;5117492;27;20207;-62
2023/06/28 07:45:52;;;;;;;2.97;1.45;;;;;;;34.79;20.93;99711.69;5120852;27;20289;-66
2023/06/28 07:48:20;;;;;;;2.67;1.17;;;;;;;32.33;23.47;99713.72;5116885;27;20195;-64
2023/06/28 07:50:50;;;;;;;3.05;1.20;;;;;;;30.93;26.53;99715.03;5117348;27;20215;-66
2023/06/28 07:53:18;;;;;;;3.05;1.50;;;;;;;30.33;26.86;99707.72;5130373;27;20207;-67
2023/06/28 07:55:46;;;;;;;3.20;1.20;;;;;;;29.50;27.89;99714.13;5122272;27;20204;-69
2023/06/28 07:58:14;;;;;;;3.40;1.15;;;;;;;28.40;29.48;99701.41;5119918;27;20207;-68
2023/06/28 08:00:42;;;;;;;2.95;1.45;;;;;;;27.40;31.16;99712.06;5106952;27;20315;-68
2023/06/28 08:03:12;;;;;;;2.80;1.00;;;;;;;26.30;33.24;99710.78;5110254;27;20209;-67
2023/06/28 08:05:41;;;;;;;3.72;1.55;;;;;;;25.31;35.43;99717.75;5114159;27;20203;-68
2023/06/28 08:08:10;;;;;;;3.65;1.67;;;;;;;24.11;38.08;99715.34;5116802;27;20330;-68
2023/06/28 08:10:38;;;;;;;3.30;1.58;;;;;;;23.54;39.30;99714.13;5116787;27;20207;-69
2023/06/28 08:13:06;;;;;;;3.47;1.50;;;;;;;23.19;40.61;99719.22;5121025;27;20195;-68
2023/06/28 08:15:36;;;;;;;3.60;1.15;;;;;;;23.04;41.28;99720.28;5119400;27;20244;-69
2023/06/28 08:18:07;;;;;;;3.55;1.20;;;;;;;23.00;41.37;99709.13;5123173;27;20621;-69
2023/06/28 08:20:37;;;;;;;5.93;1.40;;;;;;;22.97;41.37;99722.47;5128819;27;20274;-71
2023/06/28 08:23:09;;;;;;;5.05;2.00;;;;;;;22.43;41.88;99719.97;5129157;27;20203;-69
2023/06/28 08:25:37;;;;;;;3.17;1.13;;;;;;;21.99;41.68;99707.91;5127976;27;20195;-70
2023/06/28 08:28:05;;;;;;;5.03;1.50;;;;;;;21.63;42.85;99738.13;5127531;27;20234;-70
2023/06/28 08:30:34;;;;;;;4.95;1.70;;;;;;;21.40;44.30;99720.38;5124212;27;20207;-69
2023/06/28 08:33:03;;;;;;;2.80;1.23;;;;;;;21.58;43.94;99724.50;5119218;27;21031;-68
2023/06/28 08:35:31;;;;;;;7.40;1.50;;;;;;;21.67;43.46;99713.41;5131363;27;20239;-71
2023/06/28 08:38:00;;;;;;;4.25;1.10;;;;;;;21.77;43.17;99718.09;5124169;27;20290;-68
2023/06/28 08:40:29;;;;;;;2.58;1.25;;;;;;;21.68;43.22;99699.34;5123154;27;20540;-69
2023/06/28 08:43:01;;;;;;;1.73;1.20;;;;;;;21.44;43.61;99717.47;5119716;27;20207;-71
2023/06/28 08:45:31;;;;;;;5.60;1.45;;;;;;;21.23;44.82;99709.09;5126593;27;20214;-71
2023/06/28 08:48:00;;;;;;;4.25;1.50;;;;;;;21.07;45.24;99724.09;5125491;27;20211;-70
2023/06/28 08:50:40;;;;;;;5.50;1.73;;;;;;;20.94;45.54;99723.13;5121817;27;20602;-71
2023/06/28 08:53:16;;;;;;;2.35;1.58;;;;;;;20.77;45.52;99718.03;5121680;27;20721;-71
2023/06/28 08:55:46;;;;;;;3.33;1.40;;;;;;;20.58;46.23;99715.66;5125208;27;20206;-70
2023/06/28 08:58:15;;;;;;;2.75;1.65;;;;;;;20.89;45.85;99699.00;5135649;27;20203;-70
2023/06/28 09:00:45;;;;;;;2.00;1.30;;;;;;;21.20;44.99;99697.97;5134769;27;20650;-70
2023/06/28 09:03:15;;;;;;;2.75;1.60;;;;;;;21.54;43.88;99707.28;5133861;27;20195;-70
2023/06/28 09:05:45;;;;;;;6.28;1.52;;;;;;;21.70;43.02;99696.66;5129461;27;20198;-71
2023/06/28 09:08:18;;;;;;;2.40;1.25;;;;;;;21.63;42.82;99693.56;5127158;27;20537;-69
2023/06/28 09:10:47;;;;;;;5.85;1.65;;;;;;;21.36;43.80;99703.16;5122178;27;20210;-68
2023/06/28 09:13:19;;;;;;;1.73;1.13;;;;;;;20.89;45.26;99702.44;5128210;27;20223;-70
2023/06/28 09:15:48;;;;;;;2.13;1.40;;;;;;;20.70;45.74;99694.84;5124405;27;20200;-69
2023/06/28 09:18:16;;;;;;;3.80;1.60;;;;;;;20.54;45.62;99691.41;5120948;27;20592;-67
2023/06/28 09:20:49;;;;;;;3.20;1.20;;;;;;;20.42;45.64;99697.34;5121105;27;20812;-69
2023/06/28 09:23:25;;;;;;;3.20;1.13;;;;;;;20.31;45.67;99697.13;5124607;27;20215;-69
2023/06/28 09:25:53;;;;;;;1.88;1.10;;;;;;;20.10;46.30;99686.09;5125438;27;20206;-68
2023/06/28 09:28:23;;;;;;;3.00;1.13;;;;;;;20.21;45.88;99683.72;5126570;27;20203;-68
2023/06/28 09:30:55;;;;;;;3.70;1.30;;;;;;;20.43;45.30;99686.78;5130777;27;20203;-68
2023/06/28 09:33:23;;;;;;;5.03;1.23;;;;;;;20.98;45.16;99678.31;5127899;27;20235;-69
2023/06/28 09:35:54;;;;;;;3.95;1.30;;;;;;;21.69;43.43;99671.38;5132588;27;20243;-68
2023/06/28 09:38:24;;;;;;;3.10;0.80;;;;;;;22.18;41.51;99661.19;5129817;27;20200;-69
2023/06/28 09:40:56;;;;;;;8.68;1.10;;;;;;;22.49;40.97;99680.16;5127123;27;20202;-70
2023/06/28 09:43:24;;;;;;;2.90;1.00;;;;;;;22.68;40.60;99669.25;5125073;27;20199;-68
2023/06/28 09:45:54;;;;;;;2.03;1.05;;;;;;;22.43;40.63;99677.97;5126837;27;20195;-67
2023/06/28 09:48:24;;;;;;;3.03;1.15;;;;;;;22.27;40.84;99666.78;5129174;27;20199;-66
2023/06/28 09:50:52;;;;;;;2.03;1.23;;;;;;;22.02;41.37;99686.72;5130844;27;20199;-69
2023/06/28 09:53:22;;;;;;;2.35;1.20;;;;;;;21.73;41.67;99691.22;5137662;27;20682;-67
2023/06/28 09:55:52;;;;;;;4.78;1.15;;;;;;;21.67;42.03;99681.94;5130294;27;20569;-68
2023/06/28 09:58:21;;;;;;;3.28;1.00;;;;;;;21.94;41.63;99681.97;5131166;27;20203;-68
2023/06/28 10:00:51;;;;;;;3.50;1.38;;;;;;;22.45;39.75;99675.22;5131441;27;20204;-68
2023/06/28 10:03:22;;;;;;;2.28;1.10;;;;;;;22.60;39.72;99672.41;5129614;27;20195;-69
2023/06/28 10:05:54;;;;;;;2.45;1.20;;;;;;;22.33;40.41;99669.84;5133460;27;20229;-68
2023/06/28 10:08:22;;;;;;;3.05;1.35;;;;;;;22.02;41.31;99686.72;5128679;27;20252;-67
2023/06/28 10:10:54;;;;;;;3.85;1.55;;;;;;;21.82;42.45;99693.25;5127707;27;20703;-67
2023/06/28 10:13:23;;;;;;;7.45;1.63;;;;;;;21.66;43.56;99685.50;5129133;27;20256;-67
2023/06/28 10:15:57;;;;;;;2.35;1.63;;;;;;;21.56;43.96;99680.94;5130725;27;20621;-66
2023/06/28 10:18:25;;;;;;;3.10;1.35;;;;;;;22.18;44.61;99681.34;5130818;27;20562;-68
2023/06/28 10:20:54;;;;;;;5.95;1.30;;;;;;;23.37;39.82;99682.91;5132578;27;20668;-68
2023/06/28 10:23:25;;;;;;;4.10;1.20;;;;;;;25.45;34.54;99675.31;5132554;27;20206;-67
2023/06/28 10:25:55;;;;;;;3.05;1.20;;;;;;;26.24;33.58;99669.84;5133499;27;20588;-67
2023/06/28 10:28:23;;;;;;;3.00;1.08;;;;;;;25.95;33.44;99673.06;5126734;27;20678;-68
2023/06/28 10:30:52;;;;;;;2.80;1.00;;;;;;;25.29;34.78;99675.66;5130175;27;20191;-67
2023/06/28 10:33:23;;;;;;;3.22;1.33;;;;;;;24.78;35.95;99672.63;5128439;27;20211;-66
2023/06/28 10:35:52;;;;;;;2.78;1.30;;;;;;;24.13;36.52;99673.13;5133860;27;20321;-67
2023/06/28 10:38:20;;;;;;;4.50;1.13;;;;;;;23.57;37.00;99674.47;5132869;27;20195;-66
2023/06/28 10:40:49;;;;;;;4.72;1.23;;;;;;;23.22;38.13;99679.56;5128970;27;20220;-67
2023/06/28 10:43:25;;;;;;;3.22;1.33;;;;;;;23.24;38.14;99682.13;5131277;27;20657;-65
2023/06/28 10:45:53;;;;;;;3.92;1.52;;;;;;;23.23;38.10;99673.38;5138969;27;20202;-67
2023/06/28 10:48:23;;;;;;;4.50;1.27;;;;;;;23.06;38.64;99674.56;5131405;27;20203;-66
2023/06/28 10:50:52;;;;;;;3.55;1.30;;;;;;;22.86;39.47;99675.03;5131024;27;20215;-67
2023/06/28 10:53:21;;;;;;;7.78;1.42;;;;;;;22.45;40.45;99683.94;5129880;27;20231;-63
2023/06/28 10:56:10;;;;;;;3.13;1.23;;;;;;;22.06;41.26;99679.50;5129474;27;20206;-63
2023/06/28 10:58:41;;;;;;;2.63;1.00;;;;;;;21.62;41.45;99684.03;5133620;27;20563;-64
2023/06/28 11:01:10;;;;;;;3.00;1.30;;;;;;;21.50;42.22;99689.19;5131748;27;20278;-64
2023/06/28 11:03:40;;;;;;;2.63;1.20;;;;;;;21.86;42.29;99678.16;5132931;27;20191;-65
2023/06/28 11:06:09;;;;;;;1.90;0.85;;;;;;;24.07;38.46;99669.97;5126037;27;20211;-63
2023/06/28 11:08:38;;;;;;;7.05;1.42;;;;;;;25.74;34.28;99657.16;5130118;27;20203;-63
2023/06/28 11:11:08;;;;;;;4.07;1.50;;;;;;;26.79;31.83;99645.91;5125558;27;20705;-64
2023/06/28 11:13:48;;;;;;;2.53;1.20;;;;;;;26.18;33.15;99652.72;5129163;27;20298;-64
2023/06/28 11:16:21;;;;;;;3.88;1.13;;;;;;;25.27;35.09;99666.22;5131782;27;20210;-63
2023/06/28 11:18:50;;;;;;;5.70;1.25;;;;;;;24.79;36.41;99661.13;5129377;27;20199;-64
2023/06/28 11:21:22;;;;;;;4.68;1.42;;;;;;;24.32;37.99;99670.81;5135241;27;20286;-63
2023/06/28 11:23:54;;;;;;;4.35;1.30;;;;;;;24.20;38.75;99667.31;5129232;27;20668;-63
2023/06/28 11:26:33;;;;;;;2.67;1.30;;;;;;;23.51;39.65;99669.63;5117112;27;20577;-65
2023/06/28 11:29:14;;;;;;;3.30;1.10;;;;;;;23.01;40.64;99687.16;5136950;27;20198;-65
2023/06/28 11:31:48;;;;;;;3.15;1.15;;;;;;;22.04;41.91;99695.31;5119613;27;20203;-64
2023/06/28 11:34:16;;;;;;;3.65;1.42;;;;;;;21.48;42.96;99689.28;5128247;27;20271;-64
2023/06/28 11:36:45;;;;;;;3.00;1.17;;;;;;;21.39;43.31;99700.31;5129359;27;20210;-63
2023/06/28 11:39:15;;;;;;;2.63;1.02;;;;;;;21.48;43.28;99702.41;5131883;27;20252;-64
2023/06/28 11:41:43;;;;;;;2.28;1.27;;;;;;;21.64;43.25;99702.28;5118997;27;20622;-64